sensor_id;sensor_type;location;lat;lon;timestamp;P1;durP1;ratioP1;P2;durP2;ratioP2
37891;SDS011;45797;47.466;9.486;2023-08-24T00:03:11;9.50;;;4.75;;
37891;SDS011;45797;47.466;9.486;2023-08-24T00:08:22;10.68;;;4.32;;
37891;SDS011;45797;47.466;9.486;2023-08-24T00:18:42;8.27;;;4.05;;
37891;SDS011;45797;47.466;9.486;2023-08-24T00:23:52;8.48;;;4.03;;
37891;SDS011;45797;47.466;9.486;2023-08-24T00:34:26;6.93;;;4.45;;
37891;SDS011;45797;47.466;9.486;2023-08-24T00:39:27;12.43;;;4.57;;
37891;SDS011;45797;47.466;9.486;2023-08-24T00:44:27;8.63;;;4.30;;
37891;SDS011;45797;47.466;9.486;2023-08-24T00:49:34;7.35;;;4.35;;
37891;SDS011;45797;47.466;9.486;2023-08-24T00:54:36;8.75;;;4.75;;
37891;SDS011;45797;47.466;9.486;2023-08-24T00:59:39;10.27;;;4.47;;
37891;SDS011;45797;47.466;9.486;2023-08-24T01:04:43;8.13;;;4.70;;
37891;SDS011;45797;47.466;9.486;2023-08-24T01:09:45;8.88;;;4.97;;
37891;SDS011;45797;47.466;9.486;2023-08-24T01:15:04;7.00;;;4.57;;
37891;SDS011;45797;47.466;9.486;2023-08-24T01:20:14;9.07;;;4.95;;
37891;SDS011;45797;47.466;9.486;2023-08-24T01:30:31;8.73;;;5.05;;
37891;SDS011;45797;47.466;9.486;2023-08-24T01:40:44;8.40;;;5.00;;
37891;SDS011;45797;47.466;9.486;2023-08-24T01:46:02;12.10;;;4.75;;
37891;SDS011;45797;47.466;9.486;2023-08-24T01:51:04;7.93;;;4.72;;
37891;SDS011;45797;47.466;9.486;2023-08-24T02:01:18;6.57;;;4.38;;
37891;SDS011;45797;47.466;9.486;2023-08-24T02:11:48;9.85;;;4.78;;
37891;SDS011;45797;47.466;9.486;2023-08-24T02:16:49;9.73;;;4.60;;
37891;SDS011;45797;47.466;9.486;2023-08-24T02:21:50;8.88;;;4.50;;
37891;SDS011;45797;47.466;9.486;2023-08-24T02:32:10;6.57;;;4.68;;
37891;SDS011;45797;47.466;9.486;2023-08-24T02:37:11;8.80;;;4.32;;
37891;SDS011;45797;47.466;9.486;2023-08-24T02:42:11;7.80;;;4.57;;
37891;SDS011;45797;47.466;9.486;2023-08-24T02:47:12;11.32;;;5.03;;
37891;SDS011;45797;47.466;9.486;2023-08-24T03:05:18;7.78;;;5.00;;
37891;SDS011;45797;47.466;9.486;2023-08-24T03:15:24;8.15;;;5.15;;
37891;SDS011;45797;47.466;9.486;2023-08-24T03:25:29;8.75;;;4.47;;
37891;SDS011;45797;47.466;9.486;2023-08-24T03:30:29;9.65;;;5.00;;
37891;SDS011;45797;47.466;9.486;2023-08-24T03:35:31;13.55;;;4.97;;
37891;SDS011;45797;47.466;9.486;2023-08-24T03:40:34;9.70;;;4.93;;
37891;SDS011;45797;47.466;9.486;2023-08-24T03:45:34;10.65;;;5.45;;
37891;SDS011;45797;47.466;9.486;2023-08-24T03:50:35;7.45;;;4.85;;
37891;SDS011;45797;47.466;9.486;2023-08-24T03:55:35;8.45;;;4.65;;
37891;SDS011;45797;47.466;9.486;2023-08-24T04:00:42;9.60;;;4.93;;
37891;SDS011;45797;47.466;9.486;2023-08-24T04:05:53;12.75;;;4.93;;
37891;SDS011;45797;47.466;9.486;2023-08-24T04:10:55;7.60;;;4.75;;
37891;SDS011;45797;47.466;9.486;2023-08-24T04:15:56;7.95;;;5.15;;
37891;SDS011;45797;47.466;9.486;2023-08-24T04:20:58;8.85;;;5.13;;
37891;SDS011;45797;47.466;9.486;2023-08-24T04:25:58;10.13;;;5.10;;
37891;SDS011;45797;47.466;9.486;2023-08-24T04:41:30;10.38;;;4.78;;
37891;SDS011;45797;47.466;9.486;2023-08-24T04:46:31;9.00;;;5.30;;
37891;SDS011;45797;47.466;9.486;2023-08-24T04:51:32;7.47;;;4.78;;
37891;SDS011;45797;47.466;9.486;2023-08-24T04:56:41;8.70;;;4.70;;
37891;SDS011;45797;47.466;9.486;2023-08-24T05:01:58;10.32;;;4.72;;
37891;SDS011;45797;47.466;9.486;2023-08-24T05:07:05;9.38;;;5.40;;
37891;SDS011;45797;47.466;9.486;2023-08-24T05:12:14;7.55;;;5.15;;
37891;SDS011;45797;47.466;9.486;2023-08-24T05:22:23;9.45;;;5.53;;
37891;SDS011;45797;47.466;9.486;2023-08-24T05:37:33;8.30;;;5.57;;
37891;SDS011;45797;47.466;9.486;2023-08-24T05:47:37;9.60;;;5.82;;
37891;SDS011;45797;47.466;9.486;2023-08-24T05:58:39;9.68;;;6.00;;
37891;SDS011;45797;47.466;9.486;2023-08-24T06:03:40;10.82;;;5.55;;
37891;SDS011;45797;47.466;9.486;2023-08-24T06:08:43;9.38;;;5.28;;
37891;SDS011;45797;47.466;9.486;2023-08-24T06:18:56;11.20;;;6.38;;
37891;SDS011;45797;47.466;9.486;2023-08-24T06:23:57;12.45;;;6.95;;
37891;SDS011;45797;47.466;9.486;2023-08-24T06:34:00;9.38;;;6.43;;
37891;SDS011;45797;47.466;9.486;2023-08-24T06:39:03;11.48;;;6.35;;
37891;SDS011;45797;47.466;9.486;2023-08-24T06:44:06;11.23;;;6.03;;
37891;SDS011;45797;47.466;9.486;2023-08-24T06:49:09;10.07;;;5.93;;
37891;SDS011;45797;47.466;9.486;2023-08-24T06:54:10;10.82;;;5.68;;
37891;SDS011;45797;47.466;9.486;2023-08-24T06:59:16;9.50;;;5.82;;
37891;SDS011;45797;47.466;9.486;2023-08-24T07:04:17;11.57;;;6.35;;
37891;SDS011;45797;47.466;9.486;2023-08-24T07:14:22;11.80;;;6.38;;
37891;SDS011;45797;47.466;9.486;2023-08-24T07:19:22;12.20;;;6.53;;
37891;SDS011;45797;47.466;9.486;2023-08-24T07:24:32;10.60;;;6.38;;
37891;SDS011;45797;47.466;9.486;2023-08-24T07:29:33;10.90;;;6.35;;
37891;SDS011;45797;47.466;9.486;2023-08-24T07:34:35;14.55;;;6.65;;
37891;SDS011;45797;47.466;9.486;2023-08-24T07:39:37;10.85;;;6.95;;
37891;SDS011;45797;47.466;9.486;2023-08-24T07:44:39;11.02;;;6.97;;
37891;SDS011;45797;47.466;9.486;2023-08-24T07:49:39;11.57;;;7.32;;
37891;SDS011;45797;47.466;9.486;2023-08-24T07:54:46;12.68;;;6.15;;
37891;SDS011;45797;47.466;9.486;2023-08-24T07:59:46;12.13;;;6.82;;
37891;SDS011;45797;47.466;9.486;2023-08-24T08:04:47;11.43;;;6.90;;
37891;SDS011;45797;47.466;9.486;2023-08-24T08:09:47;10.90;;;7.00;;
37891;SDS011;45797;47.466;9.486;2023-08-24T08:14:48;12.70;;;7.20;;
37891;SDS011;45797;47.466;9.486;2023-08-24T08:19:48;15.93;;;6.97;;
37891;SDS011;45797;47.466;9.486;2023-08-24T08:24:49;10.57;;;7.38;;
37891;SDS011;45797;47.466;9.486;2023-08-24T08:29:50;15.68;;;7.65;;
37891;SDS011;45797;47.466;9.486;2023-08-24T08:34:50;12.77;;;7.03;;
37891;SDS011;45797;47.466;9.486;2023-08-24T08:39:51;15.45;;;7.13;;
37891;SDS011;45797;47.466;9.486;2023-08-24T08:44:52;16.42;;;8.02;;
37891;SDS011;45797;47.466;9.486;2023-08-24T08:49:56;10.30;;;6.90;;
37891;SDS011;45797;47.466;9.486;2023-08-24T08:54:57;11.00;;;7.15;;
37891;SDS011;45797;47.466;9.486;2023-08-24T08:59:59;10.35;;;7.07;;
37891;SDS011;45797;47.466;9.486;2023-08-24T09:05:00;10.05;;;6.80;;
37891;SDS011;45797;47.466;9.486;2023-08-24T09:10:03;12.35;;;7.07;;
37891;SDS011;45797;47.466;9.486;2023-08-24T09:15:05;13.73;;;8.05;;
37891;SDS011;45797;47.466;9.486;2023-08-24T09:20:07;21.60;;;8.40;;
37891;SDS011;45797;47.466;9.486;2023-08-24T09:30:22;13.63;;;8.80;;
37891;SDS011;45797;47.466;9.486;2023-08-24T09:35:22;13.10;;;7.88;;
37891;SDS011;45797;47.466;9.486;2023-08-24T09:40:26;13.40;;;8.35;;
37891;SDS011;45797;47.466;9.486;2023-08-24T09:45:26;16.60;;;7.72;;
37891;SDS011;45797;47.466;9.486;2023-08-24T09:50:26;12.63;;;8.05;;
37891;SDS011;45797;47.466;9.486;2023-08-24T09:55:27;9.18;;;6.72;;
37891;SDS011;45797;47.466;9.486;2023-08-24T10:00:33;14.07;;;7.40;;
37891;SDS011;45797;47.466;9.486;2023-08-24T10:05:36;12.75;;;8.18;;
37891;SDS011;45797;47.466;9.486;2023-08-24T10:10:37;11.65;;;7.78;;
37891;SDS011;45797;47.466;9.486;2023-08-24T10:15:39;14.07;;;8.25;;
37891;SDS011;45797;47.466;9.486;2023-08-24T10:20:48;11.32;;;7.65;;
37891;SDS011;45797;47.466;9.486;2023-08-24T10:25:50;11.15;;;7.50;;
37891;SDS011;45797;47.466;9.486;2023-08-24T10:35:57;13.52;;;8.63;;
37891;SDS011;45797;47.466;9.486;2023-08-24T10:41:01;13.18;;;7.80;;
37891;SDS011;45797;47.466;9.486;2023-08-24T10:46:13;12.05;;;8.95;;
37891;SDS011;45797;47.466;9.486;2023-08-24T10:56:21;15.65;;;8.35;;
37891;SDS011;45797;47.466;9.486;2023-08-24T11:01:39;16.02;;;8.93;;
37891;SDS011;45797;47.466;9.486;2023-08-24T11:06:57;11.30;;;8.02;;
37891;SDS011;45797;47.466;9.486;2023-08-24T11:12:02;11.73;;;7.72;;
37891;SDS011;45797;47.466;9.486;2023-08-24T11:17:18;14.90;;;8.38;;
37891;SDS011;45797;47.466;9.486;2023-08-24T11:22:21;10.73;;;7.70;;
37891;SDS011;45797;47.466;9.486;2023-08-24T11:27:21;12.70;;;8.07;;
37891;SDS011;45797;47.466;9.486;2023-08-24T11:32:22;14.52;;;9.05;;
37891;SDS011;45797;47.466;9.486;2023-08-24T11:37:23;16.20;;;8.75;;
37891;SDS011;45797;47.466;9.486;2023-08-24T11:42:35;21.85;;;8.65;;
37891;SDS011;45797;47.466;9.486;2023-08-24T11:52:41;12.73;;;8.55;;
37891;SDS011;45797;47.466;9.486;2023-08-24T11:57:43;11.98;;;8.02;;
37891;SDS011;45797;47.466;9.486;2023-08-24T12:02:44;11.95;;;7.75;;
37891;SDS011;45797;47.466;9.486;2023-08-24T12:07:44;16.70;;;8.32;;
37891;SDS011;45797;47.466;9.486;2023-08-24T12:13:20;14.25;;;8.85;;
37891;SDS011;45797;47.466;9.486;2023-08-24T12:18:15;11.82;;;8.32;;
37891;SDS011;45797;47.466;9.486;2023-08-24T12:23:15;11.98;;;7.57;;
37891;SDS011;45797;47.466;9.486;2023-08-24T12:28:16;11.35;;;8.27;;
37891;SDS011;45797;47.466;9.486;2023-08-24T12:33:24;11.15;;;8.00;;
37891;SDS011;45797;47.466;9.486;2023-08-24T12:38:26;10.35;;;7.53;;
37891;SDS011;45797;47.466;9.486;2023-08-24T12:43:27;9.82;;;7.22;;
37891;SDS011;45797;47.466;9.486;2023-08-24T12:48:27;11.02;;;7.10;;
37891;SDS011;45797;47.466;9.486;2023-08-24T12:53:27;10.45;;;6.75;;
37891;SDS011;45797;47.466;9.486;2023-08-24T12:58:30;9.75;;;6.78;;
37891;SDS011;45797;47.466;9.486;2023-08-24T13:03:32;14.23;;;6.70;;
37891;SDS011;45797;47.466;9.486;2023-08-24T13:08:33;11.57;;;6.47;;
37891;SDS011;45797;47.466;9.486;2023-08-24T13:13:35;16.08;;;7.15;;
37891;SDS011;45797;47.466;9.486;2023-08-24T13:18:43;11.93;;;6.25;;
37891;SDS011;45797;47.466;9.486;2023-08-24T13:23:44;10.45;;;6.03;;
37891;SDS011;45797;47.466;9.486;2023-08-24T13:28:47;8.52;;;5.78;;
37891;SDS011;45797;47.466;9.486;2023-08-24T13:33:49;9.50;;;6.07;;
37891;SDS011;45797;47.466;9.486;2023-08-24T13:38:49;9.43;;;6.10;;
37891;SDS011;45797;47.466;9.486;2023-08-24T13:43:49;8.25;;;6.32;;
37891;SDS011;45797;47.466;9.486;2023-08-24T13:48:51;13.00;;;6.28;;
37891;SDS011;45797;47.466;9.486;2023-08-24T13:53:52;7.68;;;5.70;;
37891;SDS011;45797;47.466;9.486;2023-08-24T13:58:52;10.05;;;5.82;;
37891;SDS011;45797;47.466;9.486;2023-08-24T14:03:53;10.45;;;6.03;;
37891;SDS011;45797;47.466;9.486;2023-08-24T14:08:53;8.00;;;5.70;;
37891;SDS011;45797;47.466;9.486;2023-08-24T14:13:53;8.52;;;5.50;;
37891;SDS011;45797;47.466;9.486;2023-08-24T14:18:55;12.15;;;5.93;;
37891;SDS011;45797;47.466;9.486;2023-08-24T14:29:00;11.95;;;5.65;;
37891;SDS011;45797;47.466;9.486;2023-08-24T14:34:02;7.28;;;5.28;;
37891;SDS011;45797;47.466;9.486;2023-08-24T14:39:03;7.95;;;5.13;;
37891;SDS011;45797;47.466;9.486;2023-08-24T14:44:03;11.30;;;5.25;;
37891;SDS011;45797;47.466;9.486;2023-08-24T14:49:04;9.50;;;5.35;;
37891;SDS011;45797;47.466;9.486;2023-08-24T14:54:14;11.10;;;5.25;;
37891;SDS011;45797;47.466;9.486;2023-08-24T15:04:19;9.75;;;5.35;;
37891;SDS011;45797;47.466;9.486;2023-08-24T15:19:31;13.50;;;5.18;;
37891;SDS011;45797;47.466;9.486;2023-08-24T15:24:32;10.15;;;4.70;;
37891;SDS011;45797;47.466;9.486;2023-08-24T15:29:33;9.10;;;5.35;;
37891;SDS011;45797;47.466;9.486;2023-08-24T15:34:33;14.18;;;5.40;;
37891;SDS011;45797;47.466;9.486;2023-08-24T15:39:38;10.82;;;5.25;;
37891;SDS011;45797;47.466;9.486;2023-08-24T15:44:40;11.73;;;4.85;;
37891;SDS011;45797;47.466;9.486;2023-08-24T15:49:42;12.60;;;5.07;;
37891;SDS011;45797;47.466;9.486;2023-08-24T15:54:44;8.63;;;4.57;;
37891;SDS011;45797;47.466;9.486;2023-08-24T16:00:00;8.48;;;4.63;;
37891;SDS011;45797;47.466;9.486;2023-08-24T16:05:01;12.98;;;5.18;;
37891;SDS011;45797;47.466;9.486;2023-08-24T16:10:03;7.78;;;4.95;;
37891;SDS011;45797;47.466;9.486;2023-08-24T16:15:14;10.27;;;4.63;;
37891;SDS011;45797;47.466;9.486;2023-08-24T16:20:14;13.40;;;4.88;;
37891;SDS011;45797;47.466;9.486;2023-08-24T16:25:15;0.28;;;0.28;;
37891;SDS011;45797;47.466;9.486;2023-08-24T16:35:21;0.10;;;0.10;;
37891;SDS011;45797;47.466;9.486;2023-08-24T16:45:28;0.20;;;0.20;;
37891;SDS011;45797;47.466;9.486;2023-08-24T16:50:29;0.10;;;0.10;;
37891;SDS011;45797;47.466;9.486;2023-08-24T16:55:30;0.10;;;0.10;;
37891;SDS011;45797;47.466;9.486;2023-08-24T17:00:31;0.10;;;0.10;;
37891;SDS011;45797;47.466;9.486;2023-08-24T17:05:32;0.10;;;0.10;;
37891;SDS011;45797;47.466;9.486;2023-08-24T17:10:34;0.10;;;0.10;;
37891;SDS011;45797;47.466;9.486;2023-08-24T17:15:35;0.20;;;0.20;;
37891;SDS011;45797;47.466;9.486;2023-08-24T17:20:37;0.10;;;0.10;;
37891;SDS011;45797;47.466;9.486;2023-08-24T17:25:42;0.10;;;0.10;;
37891;SDS011;45797;47.466;9.486;2023-08-24T17:30:53;0.10;;;0.10;;
37891;SDS011;45797;47.466;9.486;2023-08-24T17:35:55;0.10;;;0.10;;
37891;SDS011;45797;47.466;9.486;2023-08-24T17:41:09;0.10;;;0.10;;
37891;SDS011;45797;47.466;9.486;2023-08-24T17:51:13;0.20;;;0.20;;
37891;SDS011;45797;47.466;9.486;2023-08-24T17:56:13;0.10;;;0.10;;
37891;SDS011;45797;47.466;9.486;2023-08-24T18:06:32;0.10;;;0.10;;
37891;SDS011;45797;47.466;9.486;2023-08-24T18:16:43;0.10;;;0.10;;
37891;SDS011;45797;47.466;9.486;2023-08-24T18:21:43;0.10;;;0.10;;
37891;SDS011;45797;47.466;9.486;2023-08-24T18:26:44;0.10;;;0.10;;
37891;SDS011;45797;47.466;9.486;2023-08-24T18:31:45;0.20;;;0.20;;
37891;SDS011;45797;47.466;9.486;2023-08-24T18:36:47;0.38;;;0.38;;
37891;SDS011;45797;47.466;9.486;2023-08-24T18:41:48;0.45;;;0.20;;
37891;SDS011;45797;47.466;9.486;2023-08-24T18:46:51;0.15;;;0.15;;
37891;SDS011;45797;47.466;9.486;2023-08-24T18:51:52;0.10;;;0.10;;
37891;SDS011;45797;47.466;9.486;2023-08-24T18:56:55;0.10;;;0.10;;
37891;SDS011;45797;47.466;9.486;2023-08-24T19:01:57;0.20;;;0.20;;
37891;SDS011;45797;47.466;9.486;2023-08-24T19:12:01;0.20;;;0.20;;
37891;SDS011;45797;47.466;9.486;2023-08-24T19:17:03;0.10;;;0.10;;
37891;SDS011;45797;47.466;9.486;2023-08-24T19:22:06;0.13;;;0.13;;
37891;SDS011;45797;47.466;9.486;2023-08-24T19:27:07;0.20;;;0.20;;
37891;SDS011;45797;47.466;9.486;2023-08-24T19:32:09;0.20;;;0.20;;
37891;SDS011;45797;47.466;9.486;2023-08-24T19:37:10;0.17;;;0.17;;
37891;SDS011;45797;47.466;9.486;2023-08-24T19:42:12;0.20;;;0.20;;
37891;SDS011;45797;47.466;9.486;2023-08-24T19:47:14;0.10;;;0.10;;
37891;SDS011;45797;47.466;9.486;2023-08-24T19:52:14;0.20;;;0.20;;
37891;SDS011;45797;47.466;9.486;2023-08-24T19:57:16;0.20;;;0.20;;
37891;SDS011;45797;47.466;9.486;2023-08-24T20:02:16;0.20;;;0.20;;
37891;SDS011;45797;47.466;9.486;2023-08-24T20:13:13;0.17;;;0.17;;
37891;SDS011;45797;47.466;9.486;2023-08-24T20:18:25;0.20;;;0.20;;
37891;SDS011;45797;47.466;9.486;2023-08-24T20:23:37;0.20;;;0.20;;
37891;SDS011;45797;47.466;9.486;2023-08-24T20:28:41;0.10;;;0.10;;
37891;SDS011;45797;47.466;9.486;2023-08-24T20:33:43;0.10;;;0.10;;
37891;SDS011;45797;47.466;9.486;2023-08-24T20:38:47;0.20;;;0.20;;
37891;SDS011;45797;47.466;9.486;2023-08-24T20:49:08;0.10;;;0.10;;
37891;SDS011;45797;47.466;9.486;2023-08-24T20:54:15;0.20;;;0.20;;
37891;SDS011;45797;47.466;9.486;2023-08-24T20:59:16;0.10;;;0.10;;
37891;SDS011;45797;47.466;9.486;2023-08-24T21:04:22;0.20;;;0.20;;
37891;SDS011;45797;47.466;9.486;2023-08-24T21:09:22;0.20;;;0.20;;
37891;SDS011;45797;47.466;9.486;2023-08-24T21:14:35;0.10;;;0.10;;
37891;SDS011;45797;47.466;9.486;2023-08-24T21:19:43;0.10;;;0.10;;
37891;SDS011;45797;47.466;9.486;2023-08-24T21:24:54;0.20;;;0.20;;
37891;SDS011;45797;47.466;9.486;2023-08-24T21:29:59;0.10;;;0.10;;
37891;SDS011;45797;47.466;9.486;2023-08-24T21:35:00;0.10;;;0.10;;
37891;SDS011;45797;47.466;9.486;2023-08-24T21:40:02;0.10;;;0.10;;
37891;SDS011;45797;47.466;9.486;2023-08-24T21:45:03;0.10;;;0.10;;
37891;SDS011;45797;47.466;9.486;2023-08-24T21:50:04;0.10;;;0.10;;
37891;SDS011;45797;47.466;9.486;2023-08-24T21:55:06;0.20;;;0.20;;
37891;SDS011;45797;47.466;9.486;2023-08-24T22:00:16;0.20;;;0.20;;
37891;SDS011;45797;47.466;9.486;2023-08-24T22:05:18;0.20;;;0.20;;
37891;SDS011;45797;47.466;9.486;2023-08-24T22:10:19;0.10;;;0.10;;
37891;SDS011;45797;47.466;9.486;2023-08-24T22:15:21;0.13;;;0.13;;
37891;SDS011;45797;47.466;9.486;2023-08-24T22:25:34;0.17;;;0.17;;
37891;SDS011;45797;47.466;9.486;2023-08-24T22:35:46;0.17;;;0.17;;
37891;SDS011;45797;47.466;9.486;2023-08-24T22:40:47;0.20;;;0.20;;
37891;SDS011;45797;47.466;9.486;2023-08-24T22:51:03;0.15;;;0.15;;
37891;SDS011;45797;47.466;9.486;2023-08-24T22:56:03;0.20;;;0.20;;
37891;SDS011;45797;47.466;9.486;2023-08-24T23:01:12;0.10;;;0.10;;
37891;SDS011;45797;47.466;9.486;2023-08-24T23:06:21;2.20;;;0.70;;
37891;SDS011;45797;47.466;9.486;2023-08-24T23:16:41;0.30;;;0.30;;
37891;SDS011;45797;47.466;9.486;2023-08-24T23:21:42;0.20;;;0.20;;
37891;SDS011;45797;47.466;9.486;2023-08-24T23:26:49;0.30;;;0.30;;
37891;SDS011;45797;47.466;9.486;2023-08-24T23:31:50;0.10;;;0.10;;
37891;SDS011;45797;47.466;9.486;2023-08-24T23:36:50;0.20;;;0.20;;
37891;SDS011;45797;47.466;9.486;2023-08-24T23:41:51;0.20;;;0.20;;
37891;SDS011;45797;47.466;9.486;2023-08-24T23:46:52;0.20;;;0.20;;
37891;SDS011;45797;47.466;9.486;2023-08-24T23:51:52;0.20;;;0.20;;
37891;SDS011;45797;47.466;9.486;2023-08-24T23:56:52;0.15;;;0.15;;
